createdAt,value
2018-03-06T00:00:03.326Z,45.90
2018-03-06T00:01:05.876Z,45.88
2018-03-06T00:02:08.424Z,45.92
2018-03-06T00:03:10.949Z,45.94
2018-03-06T00:04:13.492Z,45.98
2018-03-06T00:05:16.048Z,45.94
2018-03-06T00:06:18.600Z,45.92
2018-03-06T00:07:21.146Z,45.96
2018-03-06T00:08:23.713Z,46.00
2018-03-06T00:09:26.235Z,46.00
2018-03-06T00:10:28.784Z,45.99
2018-03-06T00:11:31.318Z,46.07
2018-03-06T00:12:33.877Z,46.06
2018-03-06T00:13:36.432Z,46.05
2018-03-06T00:14:38.970Z,46.05
2018-03-06T00:15:41.494Z,46.07
2018-03-06T00:16:44.013Z,46.06
2018-03-06T00:17:46.555Z,46.09
2018-03-06T00:18:49.120Z,46.15
2018-03-06T00:19:51.664Z,46.31
2018-03-06T00:20:54.187Z,46.31
2018-03-06T00:21:56.731Z,46.29
2018-03-06T00:22:59.271Z,46.23
2018-03-06T00:24:01.824Z,46.24
2018-03-06T00:25:04.358Z,46.28
2018-03-06T00:26:06.893Z,46.38
2018-03-06T00:27:09.457Z,46.35
2018-03-06T00:28:11.997Z,46.38
2018-03-06T00:29:14.542Z,46.48
2018-03-06T00:30:17.081Z,46.48
2018-03-06T00:31:19.630Z,46.59
2018-03-06T00:32:22.170Z,46.56
2018-03-06T00:33:24.720Z,46.61
2018-03-06T00:34:27.264Z,46.60
2018-03-06T00:35:29.827Z,46.70
2018-03-06T00:36:32.357Z,46.99
2018-03-06T00:37:34.882Z,47.54
2018-03-06T00:38:37.942Z,47.43
2018-03-06T00:39:40.477Z,47.25
2018-03-06T00:40:43.018Z,47.32
2018-03-06T00:41:45.554Z,47.29
2018-03-06T00:42:48.096Z,47.16
2018-03-06T00:43:50.629Z,47.15
2018-03-06T00:44:53.150Z,47.05
2018-03-06T00:45:55.701Z,47.00
2018-03-06T00:46:58.244Z,47.12
2018-03-06T00:48:00.796Z,47.02
2018-03-06T00:49:03.329Z,47.06
2018-03-06T00:50:05.864Z,47.05
2018-03-06T00:51:08.420Z,47.04
2018-03-06T00:52:10.956Z,47.08
2018-03-06T00:53:13.508Z,47.02
2018-03-06T00:54:16.022Z,47.06
2018-03-06T00:55:18.574Z,47.07
2018-03-06T00:56:21.131Z,47.10
2018-03-06T00:57:23.684Z,47.09
2018-03-06T00:58:26.224Z,47.07
2018-03-06T00:59:28.771Z,47.09
2018-03-06T01:00:31.303Z,47.06
2018-03-06T01:01:33.839Z,47.26
2018-03-06T01:02:36.365Z,47.32
2018-03-06T01:03:38.916Z,47.18
2018-03-06T01:04:41.458Z,47.30
2018-03-06T01:05:44.000Z,47.24
2018-03-06T01:06:46.523Z,47.35
2018-03-06T01:07:49.068Z,47.22
2018-03-06T01:08:51.610Z,47.25
2018-03-06T01:09:54.147Z,47.42
2018-03-06T01:10:56.689Z,47.43
2018-03-06T01:11:59.235Z,47.59
2018-03-06T01:13:01.768Z,47.53
2018-03-06T01:14:04.317Z,47.40
2018-03-06T01:15:06.864Z,47.45
2018-03-06T01:16:09.397Z,47.55
2018-03-06T01:17:11.944Z,47.81
2018-03-06T01:18:14.492Z,47.59
2018-03-06T01:19:17.044Z,47.41
2018-03-06T01:20:19.666Z,47.31
2018-03-06T01:21:22.215Z,47.26
2018-03-06T01:22:24.745Z,47.26
2018-03-06T01:23:27.285Z,47.29
2018-03-06T01:24:29.818Z,47.45
2018-03-06T01:25:32.385Z,47.45
2018-03-06T01:26:34.882Z,47.45
2018-03-06T01:27:37.401Z,47.50
2018-03-06T01:28:39.934Z,47.69
2018-03-06T01:29:42.462Z,47.73
2018-03-06T01:30:45.004Z,47.80
2018-03-06T01:31:47.530Z,47.94
2018-03-06T01:32:50.079Z,48.05
2018-03-06T01:33:52.620Z,48.21
2018-03-06T01:34:55.168Z,48.31
2018-03-06T01:35:57.697Z,48.36
2018-03-06T01:37:00.236Z,48.35
2018-03-06T01:38:02.780Z,48.26
2018-03-06T01:39:05.321Z,48.20
2018-03-06T01:40:07.858Z,48.29
2018-03-06T01:41:10.385Z,48.46
2018-03-06T01:42:12.915Z,48.30
2018-03-06T01:43:15.445Z,48.04
2018-03-06T01:44:17.988Z,47.88
2018-03-06T01:45:20.536Z,47.86
2018-03-06T01:46:23.086Z,47.87
2018-03-06T01:47:25.654Z,47.88
2018-03-06T01:48:28.204Z,47.92
2018-03-06T01:49:30.753Z,47.97
2018-03-06T01:50:33.300Z,48.12
2018-03-06T01:53:11.820Z,48.23
2018-03-06T01:54:14.345Z,48.30
2018-03-06T01:55:16.892Z,48.28
2018-03-06T01:56:19.433Z,48.25
2018-03-06T01:57:21.981Z,48.22
2018-03-06T01:58:24.540Z,48.28
2018-03-06T01:59:27.080Z,48.31
2018-03-06T02:00:29.605Z,48.46
2018-03-06T02:01:32.141Z,48.40
2018-03-06T02:02:34.682Z,48.40
2018-03-06T02:03:37.230Z,48.47
2018-03-06T02:04:39.768Z,48.49
2018-03-06T02:05:42.305Z,48.40
2018-03-06T02:06:44.830Z,48.25
2018-03-06T02:07:47.384Z,48.20
2018-03-06T02:08:49.955Z,48.28
2018-03-06T02:09:52.486Z,48.28
2018-03-06T02:10:55.033Z,48.18
2018-03-06T02:11:57.572Z,48.17
2018-03-06T02:13:00.113Z,48.20
2018-03-06T02:14:02.680Z,48.19
2018-03-06T02:15:05.218Z,48.49
2018-03-06T02:16:07.756Z,48.52
2018-03-06T02:17:10.458Z,48.67
2018-03-06T02:18:13.011Z,48.60
2018-03-06T02:19:15.621Z,48.51
2018-03-06T02:20:18.165Z,48.55
2018-03-06T02:21:20.698Z,48.54
2018-03-06T02:22:23.236Z,48.39
2018-03-06T02:23:25.775Z,48.43
2018-03-06T02:24:28.340Z,48.40
2018-03-06T02:25:30.897Z,48.50
2018-03-06T02:26:33.434Z,48.60
2018-03-06T02:27:35.965Z,48.71
2018-03-06T02:28:38.516Z,48.87
2018-03-06T02:29:41.067Z,48.72
2018-03-06T02:30:43.598Z,48.63
2018-03-06T02:31:46.218Z,48.56
2018-03-06T02:32:48.766Z,48.47
2018-03-06T02:33:51.307Z,48.56
2018-03-06T02:34:53.858Z,48.59
2018-03-06T02:35:56.417Z,48.61
2018-03-06T02:36:58.953Z,48.73
2018-03-06T02:38:01.485Z,48.89
2018-03-06T02:39:04.017Z,48.81
2018-03-06T02:40:06.553Z,48.68
2018-03-06T02:41:09.094Z,48.76
2018-03-06T02:42:11.617Z,48.81
2018-03-06T02:43:14.151Z,48.87
2018-03-06T02:44:16.719Z,48.86
2018-03-06T02:45:19.268Z,48.84
2018-03-06T02:46:21.811Z,48.87
2018-03-06T02:47:24.352Z,49.17
2018-03-06T02:48:26.890Z,49.20
2018-03-06T02:49:29.447Z,49.70
2018-03-06T02:50:31.982Z,49.73
2018-03-06T02:51:34.522Z,49.48
2018-03-06T02:52:37.059Z,49.26
2018-03-06T02:53:39.623Z,49.27
2018-03-06T02:54:42.161Z,49.18
2018-03-06T02:55:44.690Z,49.19
2018-03-06T02:56:47.251Z,49.31
2018-03-06T02:57:49.804Z,49.28
2018-03-06T02:58:52.356Z,49.31
2018-03-06T02:59:54.931Z,49.27
2018-03-06T03:00:57.488Z,49.17
2018-03-06T03:02:00.031Z,49.23
2018-03-06T03:03:02.576Z,49.20
2018-03-06T03:04:05.114Z,49.18
2018-03-06T03:05:07.675Z,49.26
2018-03-06T03:06:10.211Z,49.25
2018-03-06T03:07:12.742Z,49.31
2018-03-06T03:08:15.265Z,49.18
2018-03-06T03:09:17.807Z,49.26
2018-03-06T03:10:20.384Z,49.08
2018-03-06T03:11:22.926Z,49.11
2018-03-06T03:12:25.540Z,49.08
2018-03-06T03:13:28.067Z,49.22
2018-03-06T03:14:30.612Z,49.20
2018-03-06T03:15:33.180Z,49.18
2018-03-06T03:16:35.720Z,49.14
2018-03-06T03:17:38.258Z,49.14
2018-03-06T03:18:40.816Z,49.22
2018-03-06T03:19:43.352Z,49.21
2018-03-06T03:20:45.889Z,49.24
2018-03-06T03:21:48.430Z,49.24
2018-03-06T03:22:50.978Z,49.25
2018-03-06T03:23:53.507Z,49.15
2018-03-06T03:24:56.033Z,49.12
2018-03-06T03:25:58.579Z,49.00
2018-03-06T03:27:01.132Z,48.96
2018-03-06T03:28:03.654Z,49.04
2018-03-06T03:29:06.191Z,49.36
2018-03-06T03:30:08.726Z,49.34
2018-03-06T03:31:11.261Z,49.37
2018-03-06T03:32:13.808Z,49.31
2018-03-06T03:33:16.381Z,49.23
2018-03-06T03:34:18.910Z,49.17
2018-03-06T03:35:21.480Z,49.38
2018-03-06T03:36:24.018Z,49.54
2018-03-06T03:37:26.565Z,49.33
2018-03-06T03:38:29.097Z,49.18
2018-03-06T03:39:31.642Z,49.18
2018-03-06T03:40:34.191Z,49.18
2018-03-06T03:41:36.721Z,49.18
2018-03-06T03:42:39.273Z,49.49
2018-03-06T03:43:42.197Z,49.37
2018-03-06T03:44:44.764Z,49.42
2018-03-06T03:45:47.314Z,49.58
2018-03-06T03:46:49.857Z,49.60
2018-03-06T03:47:52.393Z,49.32
2018-03-06T03:48:54.921Z,49.21
2018-03-06T03:49:57.452Z,49.40
2018-03-06T03:51:00.003Z,49.31
2018-03-06T03:52:02.551Z,49.38
2018-03-06T03:53:05.105Z,49.54
2018-03-06T03:54:07.633Z,49.81
2018-03-06T03:55:10.192Z,49.62
2018-03-06T03:56:12.788Z,49.73
2018-03-06T03:57:15.327Z,49.86
2018-03-06T03:58:17.901Z,50.36
2018-03-06T03:59:20.452Z,50.45
2018-03-06T04:00:23.028Z,50.25
2018-03-06T04:01:25.578Z,50.04
2018-03-06T04:02:28.105Z,49.93
2018-03-06T04:03:30.666Z,49.97
2018-03-06T04:04:33.211Z,50.04
2018-03-06T04:05:35.750Z,49.92
2018-03-06T04:06:38.305Z,49.99
2018-03-06T04:07:40.829Z,49.90
2018-03-06T04:08:43.377Z,49.89
2018-03-06T04:09:45.965Z,50.12
2018-03-06T04:10:48.587Z,50.23
2018-03-06T04:11:51.149Z,50.13
2018-03-06T04:12:53.701Z,50.28
2018-03-06T04:13:56.257Z,50.28
2018-03-06T04:14:58.832Z,50.29
2018-03-06T04:16:01.407Z,50.46
2018-03-06T04:17:03.934Z,50.18
2018-03-06T04:18:06.508Z,50.13
2018-03-06T04:19:09.056Z,50.08
2018-03-06T04:20:11.623Z,50.09
2018-03-06T04:21:14.178Z,50.16
2018-03-06T04:22:16.768Z,50.27
2018-03-06T04:23:19.327Z,50.25
2018-03-06T04:24:21.869Z,50.29
2018-03-06T04:25:24.412Z,50.23
2018-03-06T04:26:26.934Z,50.12
2018-03-06T04:27:29.488Z,50.25
2018-03-06T04:28:32.015Z,50.31
2018-03-06T04:29:34.545Z,50.31
2018-03-06T04:30:37.085Z,50.25
2018-03-06T04:31:39.622Z,50.14
2018-03-06T04:32:42.188Z,50.24
2018-03-06T04:33:44.743Z,50.26
2018-03-06T04:34:47.276Z,50.13
2018-03-06T04:35:49.845Z,50.18
2018-03-06T04:36:52.420Z,50.25
2018-03-06T04:37:54.945Z,50.19
2018-03-06T04:38:57.473Z,50.14
2018-03-06T04:40:00.020Z,50.19
2018-03-06T04:41:02.576Z,50.74
2018-03-06T04:42:05.340Z,50.72
2018-03-06T04:43:07.886Z,50.60
2018-03-06T04:44:10.408Z,50.64
2018-03-06T04:45:12.983Z,50.66
2018-03-06T04:46:15.552Z,50.67
2018-03-06T04:47:18.065Z,50.65
2018-03-06T04:48:20.603Z,50.39
2018-03-06T04:49:23.137Z,50.30
2018-03-06T04:50:25.683Z,50.33
2018-03-06T04:51:28.232Z,50.35
2018-03-06T04:52:30.782Z,50.55
2018-03-06T04:53:33.367Z,50.58
2018-03-06T04:54:35.923Z,50.65
2018-03-06T04:55:38.465Z,50.69
2018-03-06T04:56:41.032Z,50.81
2018-03-06T04:57:43.594Z,50.89
2018-03-06T04:58:46.144Z,50.83
2018-03-06T04:59:48.686Z,50.78
2018-03-06T05:00:51.227Z,50.77
2018-03-06T05:01:53.768Z,50.81
2018-03-06T05:02:56.332Z,50.90
2018-03-06T05:03:58.879Z,50.88
2018-03-06T05:05:01.423Z,50.77
2018-03-06T05:06:03.972Z,50.68
2018-03-06T05:07:06.514Z,50.45
2018-03-06T05:08:09.075Z,50.45
2018-03-06T05:09:11.613Z,50.69
2018-03-06T05:10:14.163Z,50.55
2018-03-06T05:11:16.701Z,50.57
2018-03-06T05:12:19.234Z,50.49
2018-03-06T05:13:21.819Z,50.56
2018-03-06T05:14:24.388Z,50.34
2018-03-06T05:15:26.925Z,50.40
2018-03-06T05:16:29.568Z,50.46
2018-03-06T05:17:32.116Z,50.43
2018-03-06T05:18:34.670Z,50.47
2018-03-06T05:19:37.212Z,50.55
2018-03-06T05:20:39.770Z,50.41
2018-03-06T05:21:42.315Z,50.58
2018-03-06T05:22:44.872Z,50.58
2018-03-06T05:23:47.440Z,50.70
2018-03-06T05:24:49.985Z,50.96
2018-03-06T05:25:52.524Z,51.11
2018-03-06T05:26:55.119Z,51.40
2018-03-06T05:27:57.606Z,51.35
2018-03-06T05:29:00.137Z,51.26
2018-03-06T05:30:02.705Z,51.52
2018-03-06T05:31:05.282Z,51.70
2018-03-06T05:32:07.852Z,51.76
2018-03-06T05:33:10.420Z,51.89
2018-03-06T05:34:12.945Z,51.99
2018-03-06T05:35:15.492Z,52.05
2018-03-06T05:36:18.026Z,52.16
2018-03-06T05:37:20.557Z,51.86
2018-03-06T05:38:23.116Z,51.95
2018-03-06T05:39:25.690Z,51.67
2018-03-06T05:40:28.350Z,51.89
2018-03-06T05:41:30.891Z,51.91
2018-03-06T05:42:33.444Z,51.83
2018-03-06T05:43:36.009Z,51.61
2018-03-06T05:44:38.563Z,51.32
2018-03-06T05:45:41.108Z,51.32
2018-03-06T05:46:43.668Z,51.32
2018-03-06T05:47:46.191Z,51.35
2018-03-06T05:48:48.756Z,51.47
2018-03-06T05:49:51.291Z,51.45
2018-03-06T05:50:53.834Z,51.36
2018-03-06T05:51:56.419Z,51.29
2018-03-06T05:52:59.095Z,50.99
2018-03-06T05:54:01.734Z,50.99
2018-03-06T05:55:04.405Z,50.89
2018-03-06T05:56:07.080Z,50.71
2018-03-06T05:57:09.716Z,50.78
2018-03-06T05:58:12.343Z,50.94
2018-03-06T05:59:14.950Z,51.29
2018-03-06T06:00:17.508Z,51.45
2018-03-06T06:01:20.038Z,51.68
2018-03-06T06:02:22.578Z,51.94
2018-03-06T06:03:25.124Z,52.15
2018-03-06T06:04:27.677Z,52.01
2018-03-06T06:05:30.228Z,51.77
2018-03-06T06:06:32.762Z,51.83
2018-03-06T06:07:35.300Z,51.65
2018-03-06T06:08:38.450Z,51.59
2018-03-06T06:09:41.467Z,51.78
2018-03-06T06:10:44.018Z,51.80
2018-03-06T06:11:47.001Z,51.42
2018-03-06T06:12:49.533Z,51.36
2018-03-06T06:13:52.073Z,51.39
2018-03-06T06:14:54.594Z,51.49
2018-03-06T06:15:57.128Z,51.41
2018-03-06T06:16:59.658Z,51.38
2018-03-06T06:18:02.230Z,51.35
2018-03-06T06:19:04.791Z,51.44
2018-03-06T06:20:07.302Z,51.51
2018-03-06T06:21:09.839Z,51.48
2018-03-06T06:22:12.693Z,51.52
2018-03-06T06:23:15.259Z,51.68
2018-03-06T06:24:17.932Z,51.98
2018-03-06T06:25:20.720Z,51.70
2018-03-06T06:26:23.356Z,51.20
2018-03-06T06:27:26.032Z,51.37
2018-03-06T06:28:28.628Z,51.87
2018-03-06T06:29:31.363Z,51.91
2018-03-06T06:30:33.908Z,52.00
2018-03-06T06:31:36.466Z,51.96
2018-03-06T06:32:39.008Z,51.68
2018-03-06T06:33:41.513Z,51.77
2018-03-06T06:34:44.037Z,51.83
2018-03-06T06:35:46.564Z,51.98
2018-03-06T06:36:49.112Z,52.21
2018-03-06T06:37:51.638Z,52.37
2018-03-06T06:38:54.163Z,52.36
2018-03-06T06:39:56.728Z,52.28
2018-03-06T06:40:59.327Z,52.25
2018-03-06T06:42:01.851Z,52.25
2018-03-06T06:43:04.373Z,52.22
2018-03-06T06:44:06.877Z,52.35
2018-03-06T06:45:09.415Z,52.18
2018-03-06T06:46:11.940Z,52.18
2018-03-06T06:47:14.458Z,52.05
2018-03-06T06:48:16.977Z,52.18
2018-03-06T06:49:19.486Z,52.19
2018-03-06T06:50:22.054Z,52.16
2018-03-06T06:51:24.572Z,52.47
2018-03-06T06:52:27.145Z,52.42
2018-03-06T06:53:29.666Z,51.94
2018-03-06T06:54:32.219Z,51.52
2018-03-06T06:55:34.750Z,51.19
2018-03-06T06:56:37.274Z,50.87
2018-03-06T06:57:39.814Z,48.80
2018-03-06T06:58:42.393Z,46.92
2018-03-06T06:59:44.972Z,45.90
2018-03-06T07:00:47.522Z,43.96
2018-03-06T07:01:50.090Z,43.25
2018-03-06T07:02:52.748Z,43.28
2018-03-06T07:03:55.305Z,43.33
2018-03-06T07:04:57.873Z,43.31
2018-03-06T07:06:00.426Z,43.13
2018-03-06T07:07:02.953Z,42.70
2018-03-06T07:08:05.556Z,42.65
2018-03-06T07:09:08.228Z,42.15
2018-03-06T07:10:10.768Z,42.15
2018-03-06T07:11:13.298Z,42.22
2018-03-06T07:12:15.835Z,41.98
2018-03-06T07:13:18.401Z,41.95
2018-03-06T07:14:20.918Z,41.67
2018-03-06T07:15:23.444Z,41.68
2018-03-06T07:16:25.965Z,42.01
2018-03-06T07:17:28.490Z,42.35
2018-03-06T07:18:31.037Z,42.67
2018-03-06T07:19:33.599Z,42.63
2018-03-06T07:20:36.150Z,42.37
2018-03-06T07:21:38.678Z,42.19
2018-03-06T07:22:41.210Z,42.28
2018-03-06T07:23:43.839Z,42.18
2018-03-06T07:24:46.346Z,42.20
2018-03-06T07:25:48.932Z,42.12
2018-03-06T07:26:51.488Z,41.83
2018-03-06T07:27:54.030Z,41.69
2018-03-06T07:28:56.564Z,41.80
2018-03-06T07:29:59.108Z,41.73
2018-03-06T07:31:01.665Z,41.47
2018-03-06T07:32:04.205Z,41.49
2018-03-06T07:33:06.840Z,41.45
2018-03-06T07:34:09.444Z,41.48
2018-03-06T07:35:11.978Z,41.51
2018-03-06T07:36:14.591Z,41.58
2018-03-06T07:37:17.140Z,41.65
2018-03-06T07:38:19.740Z,41.77
2018-03-06T07:39:22.362Z,42.12
2018-03-06T07:40:24.946Z,43.03
2018-03-06T07:41:27.684Z,44.14
2018-03-06T07:42:30.253Z,43.53
2018-03-06T07:43:32.791Z,43.28
2018-03-06T07:44:35.339Z,43.74
2018-03-06T07:45:37.916Z,43.60
2018-03-06T07:46:40.615Z,43.92
2018-03-06T07:47:43.379Z,44.02
2018-03-06T07:48:47.588Z,43.85
2018-03-06T07:49:50.815Z,43.64
2018-03-06T07:50:53.390Z,43.46
2018-03-06T07:51:55.954Z,43.30
2018-03-06T07:52:58.482Z,42.91
2018-03-06T07:54:01.034Z,42.58
2018-03-06T07:55:03.612Z,42.26
2018-03-06T07:56:06.193Z,41.85
2018-03-06T07:57:08.774Z,41.45
2018-03-06T07:58:11.547Z,41.02
2018-03-06T07:59:14.259Z,40.83
2018-03-06T08:00:16.801Z,40.61
2018-03-06T08:01:19.386Z,40.50
2018-03-06T08:02:21.918Z,40.37
2018-03-06T08:03:24.452Z,40.30
2018-03-06T08:04:26.978Z,40.21
2018-03-06T08:05:29.582Z,40.22
2018-03-06T08:06:32.152Z,40.16
2018-03-06T08:07:34.748Z,40.19
2018-03-06T08:08:37.708Z,40.18
2018-03-06T08:09:40.230Z,40.22
2018-03-06T08:10:42.804Z,40.23
2018-03-06T08:11:45.440Z,40.25
2018-03-06T08:12:47.963Z,40.28
2018-03-06T08:13:50.628Z,40.33
2018-03-06T08:14:53.322Z,40.37
2018-03-06T08:15:55.980Z,40.43
2018-03-06T08:16:58.517Z,40.44
2018-03-06T08:18:01.048Z,40.48
2018-03-06T08:19:03.673Z,40.56
2018-03-06T08:20:06.251Z,40.62
2018-03-06T08:21:08.893Z,40.67
2018-03-06T08:22:11.668Z,40.75
2018-03-06T08:23:14.194Z,40.83
2018-03-06T08:24:16.734Z,40.62
2018-03-06T08:25:19.274Z,41.02
2018-03-06T08:26:21.806Z,41.02
2018-03-06T08:27:24.344Z,41.32
2018-03-06T08:28:26.880Z,41.04
2018-03-06T08:29:29.393Z,40.81
2018-03-06T08:30:31.992Z,40.58
2018-03-06T08:31:34.662Z,40.66
2018-03-06T08:32:37.271Z,40.59
2018-03-06T08:33:39.811Z,40.38
2018-03-06T08:34:42.406Z,40.34
2018-03-06T08:35:45.131Z,40.26
2018-03-06T08:36:48.329Z,40.26
2018-03-06T08:37:50.859Z,40.24
2018-03-06T08:38:53.387Z,40.29
2018-03-06T08:39:56.040Z,40.32
2018-03-06T08:40:58.687Z,40.34
2018-03-06T08:42:01.209Z,40.30
2018-03-06T08:43:03.739Z,40.30
2018-03-06T08:44:06.953Z,40.21
2018-03-06T08:45:09.482Z,40.25
2018-03-06T08:46:12.014Z,40.05
2018-03-06T08:47:14.584Z,40.03
2018-03-06T08:48:17.185Z,40.00
2018-03-06T08:49:19.725Z,39.50
2018-03-06T08:50:22.246Z,39.25
2018-03-06T08:51:24.817Z,39.06
2018-03-06T08:52:27.420Z,38.82
2018-03-06T08:53:30.042Z,38.67
2018-03-06T08:54:32.593Z,38.60
2018-03-06T08:55:35.311Z,38.34
2018-03-06T08:56:38.858Z,37.91
2018-03-06T08:57:41.541Z,37.73
2018-03-06T08:58:44.157Z,37.72
2018-03-06T08:59:46.836Z,37.71
2018-03-06T09:00:49.447Z,37.72
2018-03-06T09:01:52.294Z,37.77
2018-03-06T09:02:55.097Z,37.87
2018-03-06T09:03:57.729Z,37.85
2018-03-06T09:05:00.238Z,37.78
2018-03-06T09:06:02.766Z,37.85
2018-03-06T09:07:05.282Z,37.83
2018-03-06T09:08:07.817Z,37.80
2018-03-06T09:09:10.354Z,37.80
2018-03-06T09:10:12.898Z,37.82
2018-03-06T09:11:15.422Z,37.83
2018-03-06T09:12:17.956Z,37.77
2018-03-06T09:13:20.470Z,37.90
2018-03-06T09:14:23.019Z,37.94
2018-03-06T09:15:25.542Z,37.93
2018-03-06T09:16:28.053Z,37.98
2018-03-06T09:17:30.669Z,38.04
2018-03-06T09:18:33.160Z,38.02
2018-03-06T09:19:35.688Z,38.10
2018-03-06T09:20:38.220Z,38.19
2018-03-06T09:21:40.746Z,38.28
2018-03-06T09:22:43.262Z,38.27
2018-03-06T09:23:45.773Z,38.31
2018-03-06T09:24:48.311Z,38.40
2018-03-06T09:25:50.822Z,38.49
2018-03-06T09:26:53.360Z,38.54
2018-03-06T09:27:55.888Z,38.54
2018-03-06T09:28:58.420Z,38.59
2018-03-06T09:30:00.938Z,38.62
2018-03-06T09:31:03.462Z,38.60
2018-03-06T09:32:05.986Z,38.63
2018-03-06T09:33:08.528Z,38.72
2018-03-06T09:34:11.041Z,38.79
2018-03-06T09:35:13.553Z,38.85
2018-03-06T09:36:16.090Z,38.74
2018-03-06T09:37:18.635Z,38.74
2018-03-06T09:38:21.171Z,38.64
2018-03-06T09:39:23.687Z,38.53
2018-03-06T09:40:26.214Z,38.49
2018-03-06T09:41:28.758Z,38.48
2018-03-06T09:42:31.277Z,38.40
2018-03-06T09:43:33.804Z,38.34
2018-03-06T09:44:36.339Z,38.33
2018-03-06T09:45:38.857Z,38.28
2018-03-06T09:46:41.388Z,38.31
2018-03-06T09:47:43.911Z,38.25
2018-03-06T09:48:46.422Z,38.30
2018-03-06T09:49:48.971Z,38.33
2018-03-06T09:50:51.482Z,38.33
2018-03-06T09:51:54.010Z,38.35
2018-03-06T09:52:56.518Z,38.38
2018-03-06T09:53:59.029Z,38.42
2018-03-06T09:55:01.538Z,38.39
2018-03-06T09:56:04.076Z,38.45
2018-03-06T09:57:06.620Z,38.47
2018-03-06T09:58:09.148Z,38.56
2018-03-06T09:59:11.664Z,38.57
2018-03-06T10:00:14.187Z,38.58
2018-03-06T10:01:16.795Z,38.63
2018-03-06T10:02:19.387Z,38.62
2018-03-06T10:03:22.109Z,38.61
2018-03-06T10:04:24.644Z,38.59
2018-03-06T10:05:27.183Z,38.62
2018-03-06T10:06:29.827Z,38.55
2018-03-06T10:07:32.444Z,38.54
2018-03-06T10:08:34.970Z,38.54
2018-03-06T10:09:37.523Z,38.61
2018-03-06T10:10:40.052Z,38.59
2018-03-06T10:11:42.666Z,38.62
2018-03-06T10:12:45.373Z,38.67
2018-03-06T10:13:48.168Z,38.63
2018-03-06T10:14:50.777Z,38.62
2018-03-06T10:15:53.306Z,38.63
2018-03-06T10:16:55.872Z,38.68
2018-03-06T10:17:58.415Z,38.71
2018-03-06T10:19:00.925Z,38.70
2018-03-06T10:20:03.482Z,38.69
2018-03-06T10:21:06.016Z,38.71
2018-03-06T10:22:08.527Z,38.74
2018-03-06T10:23:11.063Z,38.73
2018-03-06T10:24:13.574Z,38.74
2018-03-06T10:25:16.091Z,38.69
2018-03-06T10:26:18.966Z,38.66
2018-03-06T10:27:21.775Z,38.69
2018-03-06T10:28:24.282Z,38.79
2018-03-06T10:29:26.859Z,39.02
2018-03-06T10:30:29.373Z,38.97
2018-03-06T10:31:31.907Z,38.93
2018-03-06T10:32:35.405Z,38.85
2018-03-06T10:33:43.516Z,38.74
2018-03-06T10:35:01.506Z,38.69
2018-03-06T10:36:05.659Z,38.62
2018-03-06T10:38:30.461Z,38.49
2018-03-06T10:39:33.295Z,38.43
2018-03-06T10:40:35.822Z,38.43
2018-03-06T10:41:38.338Z,38.40
2018-03-06T10:42:40.872Z,38.37
2018-03-06T10:43:43.517Z,38.37
2018-03-06T10:44:46.050Z,38.41
2018-03-06T10:45:48.598Z,38.39
2018-03-06T10:46:51.128Z,38.38
2018-03-06T10:47:53.679Z,38.33
2018-03-06T10:48:56.208Z,38.42
2018-03-06T10:49:58.740Z,38.44
2018-03-06T10:51:01.272Z,38.41
2018-03-06T10:52:03.807Z,38.43
2018-03-06T10:53:06.338Z,38.45
2018-03-06T10:54:08.880Z,38.49
2018-03-06T10:55:11.544Z,38.52
2018-03-06T10:56:14.052Z,38.51
2018-03-06T10:57:16.600Z,38.52
2018-03-06T10:58:19.129Z,38.55
2018-03-06T10:59:21.654Z,38.54
2018-03-06T11:00:29.757Z,38.57
2018-03-06T11:01:33.212Z,38.58
2018-03-06T11:02:41.603Z,38.63
2018-03-06T11:03:44.139Z,38.63
2018-03-06T11:04:46.662Z,38.62
2018-03-06T11:05:49.187Z,38.65
2018-03-06T11:06:51.719Z,38.64
2018-03-06T11:07:54.241Z,38.54
2018-03-06T11:08:56.789Z,38.54
2018-03-06T11:09:59.305Z,38.50
2018-03-06T11:11:01.822Z,38.50
2018-03-06T11:12:04.334Z,38.48
2018-03-06T11:13:06.856Z,38.55
2018-03-06T11:14:09.456Z,38.52
2018-03-06T11:15:11.973Z,38.47
2018-03-06T11:16:14.523Z,38.52
2018-03-06T11:17:17.038Z,38.52
2018-03-06T11:18:19.587Z,38.53
2018-03-06T11:19:22.144Z,38.51
2018-03-06T11:20:24.742Z,38.54
2018-03-06T11:21:27.272Z,38.58
2018-03-06T11:22:29.804Z,38.70
2018-03-06T11:23:32.345Z,38.86
2018-03-06T11:24:34.887Z,38.91
2018-03-06T11:25:37.409Z,39.42
2018-03-06T11:26:39.930Z,39.43
2018-03-06T11:27:42.464Z,39.45
2018-03-06T11:28:45.506Z,39.47
2018-03-06T11:29:48.093Z,39.45
2018-03-06T11:30:50.700Z,39.71
2018-03-06T11:31:53.252Z,39.79
2018-03-06T11:32:55.784Z,39.87
2018-03-06T11:33:58.324Z,39.72
2018-03-06T11:35:00.965Z,39.65
2018-03-06T11:36:03.527Z,39.56
2018-03-06T11:37:06.107Z,39.47
2018-03-06T11:38:08.640Z,39.51
2018-03-06T11:39:11.153Z,39.50
2018-03-06T11:40:13.719Z,39.50
2018-03-06T11:41:16.254Z,39.56
2018-03-06T11:42:18.789Z,39.61
2018-03-06T11:43:21.338Z,39.66
2018-03-06T11:44:23.857Z,39.74
2018-03-06T11:45:26.394Z,40.03
2018-03-06T11:46:28.906Z,40.03
2018-03-06T11:47:31.436Z,40.00
2018-03-06T11:48:33.953Z,39.95
2018-03-06T11:49:36.504Z,40.02
2018-03-06T11:50:39.046Z,40.09
2018-03-06T11:51:41.562Z,40.00
2018-03-06T11:52:44.096Z,40.02
2018-03-06T11:53:46.612Z,40.07
2018-03-06T11:54:49.156Z,39.68
2018-03-06T11:55:51.694Z,39.26
2018-03-06T11:56:54.231Z,39.03
2018-03-06T11:57:56.855Z,38.49
2018-03-06T11:58:59.406Z,38.66
2018-03-06T12:00:01.953Z,38.56
2018-03-06T12:01:04.675Z,38.97
2018-03-06T12:02:07.217Z,38.98
2018-03-06T12:03:09.785Z,39.01
2018-03-06T12:04:12.312Z,39.02
2018-03-06T12:05:14.845Z,39.04
2018-03-06T12:06:17.524Z,39.12
2018-03-06T12:07:20.055Z,39.00
2018-03-06T12:08:22.594Z,39.00
2018-03-06T12:09:25.134Z,38.96
2018-03-06T12:10:27.667Z,38.89
2018-03-06T12:11:30.205Z,38.89
2018-03-06T12:12:32.719Z,38.94
2018-03-06T12:13:35.238Z,38.97
2018-03-06T12:14:37.773Z,39.02
2018-03-06T12:15:40.304Z,39.07
2018-03-06T12:16:42.962Z,39.08
2018-03-06T12:17:45.478Z,39.10
2018-03-06T12:18:48.015Z,39.13
2018-03-06T12:19:50.530Z,39.15
2018-03-06T12:20:53.046Z,39.17
2018-03-06T12:21:55.596Z,39.21
2018-03-06T12:22:58.126Z,39.24
2018-03-06T12:24:00.662Z,39.25
2018-03-06T12:25:03.195Z,39.25
2018-03-06T12:26:05.714Z,39.26
2018-03-06T12:27:08.253Z,39.26
2018-03-06T12:28:10.784Z,39.27
2018-03-06T12:29:13.308Z,39.27
2018-03-06T12:30:15.846Z,39.29
2018-03-06T12:31:18.371Z,39.49
2018-03-06T12:32:20.911Z,39.50
2018-03-06T12:33:23.494Z,39.42
2018-03-06T12:34:26.049Z,39.34
2018-03-06T12:35:28.570Z,39.24
2018-03-06T12:36:31.102Z,39.20
2018-03-06T12:37:33.644Z,39.13
2018-03-06T12:38:36.176Z,39.00
2018-03-06T12:39:38.707Z,39.00
2018-03-06T12:40:41.225Z,38.92
2018-03-06T12:41:43.760Z,38.88
2018-03-06T12:42:46.306Z,38.89
2018-03-06T12:43:48.828Z,38.89
2018-03-06T12:44:51.363Z,38.88
2018-03-06T12:45:53.916Z,38.89
2018-03-06T12:46:56.450Z,38.92
2018-03-06T12:47:59.004Z,38.94
2018-03-06T12:49:01.541Z,38.95
2018-03-06T12:50:04.606Z,38.95
2018-03-06T12:51:07.206Z,38.98
2018-03-06T12:52:10.374Z,39.01
2018-03-06T12:53:14.586Z,39.03
2018-03-06T12:54:18.305Z,39.04
2018-03-06T12:55:22.033Z,39.07
2018-03-06T12:56:24.626Z,39.06
2018-03-06T12:57:27.547Z,39.07
2018-03-06T12:58:31.420Z,39.05
2018-03-06T12:59:34.086Z,39.07
2018-03-06T13:00:36.844Z,39.07
2018-03-06T13:01:39.372Z,39.05
2018-03-06T13:02:42.061Z,39.08
2018-03-06T13:03:44.797Z,39.10
2018-03-06T13:04:48.126Z,39.08
2018-03-06T13:05:50.722Z,39.07
2018-03-06T13:06:53.257Z,39.09
2018-03-06T13:07:55.824Z,39.11
2018-03-06T13:08:58.370Z,39.11
2018-03-06T13:10:00.997Z,39.13
2018-03-06T13:11:05.329Z,39.11
2018-03-06T13:13:28.053Z,39.13
2018-03-06T13:14:31.064Z,39.10
2018-03-06T13:15:33.661Z,39.11
2018-03-06T13:16:55.561Z,39.15
2018-03-06T13:17:58.738Z,39.18
2018-03-06T13:19:07.270Z,39.43
2018-03-06T13:20:18.866Z,39.40
2018-03-06T13:21:21.419Z,39.31
2018-03-06T13:22:31.593Z,39.23
2018-03-06T13:23:36.525Z,39.04
2018-03-06T13:24:39.141Z,38.97
2018-03-06T13:25:41.706Z,38.88
2018-03-06T13:26:44.304Z,38.85
2018-03-06T13:27:46.882Z,38.79
2018-03-06T13:28:49.417Z,38.76
2018-03-06T13:29:52.028Z,38.73
2018-03-06T13:30:54.564Z,38.73